Terminal Aerodrome Forecast
Issued by NWS Amarillo, TX

Home | Current Version | Previous Version | Text Only | Print | Product List | Glossary On
Versions: 1 2 3 4 5 6 7 8 9 10 11 12 13
490
FTUS44 KAMA 022346
TAFAMA
TAF
KAMA 022346Z 0300/0324 05013KT P6SM OVC030
     FM030200 04013KT 4SM -RA BR OVC015
     FM030600 02012KT 1SM -RASN BR OVC004
     FM031800 01007KT 2SM -RA BR OVC005=

USA.gov is the U.S. government's official web portal to all federal, state and local government web resources and services.